Hauptseite
METAR-TAF:

METAR-TAF

Flughäfen :

Sarh, Tschad

Breite: 09-09N, Länge: 018-23E, Höhe: 365 m

Beobachtung

Neuester Wetterbericht von vor 11 Stunden und 50 Minuten, um 17:00 UTC
Wind 2 kt aus Süd/Südwest
Temperatur 30°C
Luftfeuchtigkeit 66%
Luftdruck 1010 hPa
Sichtweite 10 km oder mehr
Leicht bewölkt in der Höhe von 4000 ft

METAR: FTTA 241700Z 20002KT 9999 FEW040 30/23 Q1010

Zeit: 05:50 (04:50 UTC)


TAF: fehlend

Wetterbeobachtungen und Prognosen von mehr als 4000 Flughäfen (METAR und TAF Bericht).

Die verfügbaren Stationen werden durch gelbe und rote Markierungen auf der Karte dargestellt.

Führen Sie die Maus auf sie, um den Namen der Station zu sehen.

Darauf klicken, um die Beobachtung von Wetterbeobachtungen und Prognosen zu sehen.

Um die Karte zu ändern : klicken Sie auf den grünen Tasten mit einem schwarzen Kreuz Zum Vergrößern, auf den grünen Button mit einem Gedankenstrich zu verkleinern, oder auf die grünen Pfeile für benachbarte Karten.


METAR-TAF: